This is the latest recevied weather packets stored in our database for station/object HA3KHB-6. If no packets are shown the sender has not sent any weather packets the latest 10 day(s).
| Time | Temp. | Humidity | Pressure | Rain* | Wind** | Luminosity | Snow |
|---|---|---|---|---|---|---|---|
| 1777659914 | 12.78° C | 100% | - | - | - | - | - |
| 1777659313 | 12.22° C | 100% | - | - | - | - | - |
| 1777658713 | 12.78° C | 98% | - | - | - | - | - |
| 1777658113 | 13.33° C | 96% | 212.7 hPa | - | - | - | - |
| 1777657517 | 13.89° C | 92% | 133.6 hPa | - | - | - | - |
| 1777656917 | 14.44° C | 88% | 236.1 hPa | - | - | - | - |
| 1777656316 | 15° C | 84% | 345.7 hPa | - | - | - | - |
| 1777655716 | 15.56° C | 80% | 439.3 hPa | - | - | - | - |
| 1777655116 | 16.11° C | 78% | 523.2 hPa | - | - | - | - |
| 1777654516 | 16.67° C | 72% | 701.5 hPa | - | - | - | - |
| 1777653916 | 18.33° C | 68% | 777.2 hPa | - | - | - | - |
| 1777653316 | 20.56° C | 74% | 486.6 hPa | - | - | - | - |
| 1777652716 | 19.44° C | 75% | 533 hPa | - | - | - | - |
| 1777652116 | 21.67° C | 77% | 457.2 hPa | - | - | - | - |
| 1777651516 | 21.67° C | 50% | 1528.3 hPa | - | - | - | - |
| 1777650916 | 19.44° C | 43% | 1522.9 hPa | - | - | - | - |
| 1777650316 | 22.78° C | 39% | 1530.6 hPa | - | - | - | - |
| 1777649716 | 23.33° C | 37% | 1533.1 hPa | - | - | - | - |
| 1777649116 | 25.56° C | 33% | 1537.9 hPa | - | - | - | - |
| 1777648516 | 24.44° C | 36% | 1536.1 hPa | - | - | - | - |
| 1777647915 | 27.22° C | 33% | 1543.3 hPa | - | - | - | - |
| 1777647315 | 25° C | 29% | 1537.4 hPa | - | - | - | - |
| 1777646715 | 30.56° C | 32% | 1551.1 hPa | - | - | - | - |
| 1777646115 | 30° C | 34% | 1549.7 hPa | - | - | - | - |
| 1777645515 | 28.89° C | 35% | 1546.7 hPa | - | - | - | - |
* Rain since midnight (hover to see other rain measurements)
** Current wind speed in m/s (hover to see current wind gust speed)